Time;durP1;ratioP1;P1;durP2;ratioP2;P2;SDS_P1;SDS_P2;PMS_P1;PMS_P2;Temp;Humidity;BMP_temperature;BMP_pressure;BME280_temperature;BME280_humidity;BME280_pressure;Samples;Min_cycle;Max_cycle;Signal;HPM_P1;HPM_P2
2021/04/06 04:56:12;;;;;;;;;;;;;;;4.95;67.55;96297.99;1657199;85;20493;-65
2021/04/06 04:58:39;;;;;;;;;;;;;;;4.90;68.29;96292.20;1652861;84;20498;-65
2021/04/06 05:01:07;;;;;;;;;;;;;;;4.86;68.50;96298.94;1644421;84;20604;-67
2021/04/06 05:03:35;;;;;;;;;;;;;;;4.90;68.66;96295.34;1635982;85;20621;-65
2021/04/06 05:06:04;;;;;;;;;;;;;;;4.91;68.30;96289.87;1635106;85;22042;-63
2021/04/06 05:08:32;;;;;;;;;;;;;;;4.92;69.38;96299.77;1643653;85;20211;-66
2021/04/06 05:11:00;;;;;;;;;;;;;;;4.94;69.45;96292.00;1651444;84;20505;-67
2021/04/06 05:13:28;;;;;;;;;;;;;;;4.99;69.85;96302.45;1656688;84;21178;-65
2021/04/06 05:15:56;;;;;;;;;;;;;;;5.01;69.47;96307.42;1650235;84;20808;-70
2021/04/06 05:18:23;;;;;;;;;;;;;;;5.05;69.15;96308.50;1646021;84;21014;-70
2021/04/06 05:20:51;;;;;;;;;;;;;;;5.07;69.35;96311.14;1645871;85;20701;-68
2021/04/06 05:23:19;;;;;;;;;;;;;;;5.06;69.41;96316.58;1650978;84;20522;-68
2021/04/06 05:25:47;;;;;;;;;;;;;;;5.08;69.83;96323.12;1651110;85;20941;-74
2021/04/06 05:28:15;;;;;;;;;;;;;;;5.11;70.02;96324.47;1644897;84;20764;-64
2021/04/06 05:30:43;;;;;;;;;;;;;;;5.17;70.00;96326.09;1640578;84;21896;-72
2021/04/06 05:33:11;;;;;;;;;;;;;;;5.24;69.94;96332.41;1638627;84;20629;-70
2021/04/06 05:35:39;;;;;;;;;;;;;;;5.28;70.61;96368.13;1633818;85;20401;-70
2021/04/06 05:38:07;;;;;;;;;;;;;;;5.32;68.78;96379.65;1646045;84;20686;-66
2021/04/06 05:40:35;;;;;;;;;;;;;;;5.34;69.98;96381.98;1639346;84;20516;-66
2021/04/06 05:43:03;;;;;;;;;;;;;;;5.30;70.23;96397.84;1630644;85;22164;-70
2021/04/06 05:45:32;;;;;;;;;;;;;;;5.22;71.41;96396.97;1643524;84;20531;-66
2021/04/06 05:48:02;;;;;;;;;;;;;;;5.19;71.78;96402.14;1615539;85;20494;-70
2021/04/06 05:50:30;;;;;;;;;;;;;;;5.17;72.50;96415.94;1643210;84;20603;-69
2021/04/06 05:53:00;;;;;;;;;;;;;;;5.10;73.50;96427.84;1640231;84;20656;-66
2021/04/06 05:55:28;;;;;;;;;;;;;;;5.00;74.51;96438.62;1629626;85;21863;-65
2021/04/06 05:57:56;;;;;;;;;;;;;;;4.92;75.19;96447.64;1631433;85;20386;-68
2021/04/06 06:00:24;;;;;;;;;;;;;;;4.83;76.06;96458.19;1636303;84;20598;-67
2021/04/06 06:02:52;;;;;;;;;;;;;;;4.77;76.80;96458.35;1636948;85;20674;-69
2021/04/06 06:05:20;;;;;;;;;;;;;;;4.72;77.57;96459.08;1634737;86;20604;-66
2021/04/06 06:07:48;;;;;;;;;;;;;;;4.71;77.83;96471.81;1642341;85;21712;-65
2021/04/06 06:10:30;;;;;;;;;;;;;;;4.69;77.38;96490.77;1640118;84;20551;-67
2021/04/06 06:13:16;;;;;;;;;;;;;;;4.54;76.77;96480.92;1628666;84;20556;-63
2021/04/06 06:16:07;;;;;;;;;;;;;;;4.45;77.45;96491.47;1638913;85;20414;-69
2021/04/06 06:18:59;;;;;;;;;;;;;;;4.37;78.13;96497.56;1630557;86;20560;-66
2021/04/06 06:21:52;;;;;;;;;;;;;;;4.31;78.29;96518.30;1636157;84;22326;-64
2021/04/06 06:24:30;;;;;;;;;;;;;;;4.23;78.65;96508.28;1616159;85;20574;-65
2021/04/06 06:26:59;;;;;;;;;;;;;;;4.19;79.00;96512.86;1624113;84;20401;-62
2021/04/06 06:29:33;;;;;;;;;;;;;;;4.11;79.56;96521.04;1624125;85;20412;-65
2021/04/06 06:32:00;;;;;;;;;;;;;;;4.05;79.32;96518.87;1623436;85;20595;-66
2021/04/06 06:34:38;;;;;;;;;;;;;;;3.98;79.23;96531.22;1611644;86;21874;-64
2021/04/06 06:37:26;;;;;;;;;;;;;;;3.95;79.15;96527.80;1599180;86;20522;-66
2021/04/06 06:39:58;;;;;;;;;;;;;;;3.93;78.91;96533.73;1592616;86;20600;-66
2021/04/06 06:42:28;;;;;;;;;;;;;;;3.88;78.56;96537.55;1591982;87;20649;-67
2021/04/06 06:44:56;;;;;;;;;;;;;;;3.81;78.42;96544.69;1588508;87;20623;-65
2021/04/06 06:47:25;;;;;;;;;;;;;;;3.75;78.78;96540.39;1612859;86;21717;-68
2021/04/06 06:49:55;;;;;;;;;;;;;;;3.68;79.93;96551.42;1616142;85;20603;-68
2021/04/06 06:52:27;;;;;;;;;;;;;;;3.68;80.18;96560.01;1621796;85;20249;-71
2021/04/06 06:54:58;;;;;;;;;;;;;;;3.69;79.62;96549.91;1626904;84;20692;-66
2021/04/06 06:57:32;;;;;;;;;;;;;;;3.72;79.57;96567.64;1641851;84;20604;-69
2021/04/06 07:00:11;;;;;;;;;;;;;;;3.73;79.12;96567.92;1646195;84;22094;-70
2021/04/06 07:02:40;;;;;;;;;;;;;;;3.76;78.63;96571.34;1602668;86;20571;-69
2021/04/06 07:05:18;;;;;;;;;;;;;;;3.72;77.83;96589.73;1619430;84;20411;-72
2021/04/06 07:08:01;;;;;;;;;;;;;;;3.64;78.06;96579.69;1641959;84;20724;-69
2021/04/06 07:10:36;;;;;;;;;;;;;;;3.58;78.66;96588.41;1632870;84;20732;-65
2021/04/06 07:13:16;;;;;;;;;;;;;;;3.56;79.24;96583.94;1631693;84;21803;-67
2021/04/06 07:15:48;;;;;;;;;;;;;;;3.58;79.00;96618.78;1616263;85;20505;-64
2021/04/06 07:18:21;;;;;;;;;;;;;;;3.54;78.37;96614.03;1624919;84;20665;-69
2021/04/06 07:21:02;;;;;;;;;;;;;;;3.49;78.90;96610.03;1628421;85;20548;-69
2021/04/06 07:23:47;;;;;;;;;;;;;;;3.49;79.08;96611.33;1582625;87;21046;-67
2021/04/06 07:26:20;;;;;;;;;;;;;;;3.51;78.82;96633.19;1616603;84;20942;-66
2021/04/06 07:28:48;;;;;;;;;;;;;;;3.43;79.53;96616.14;1600372;87;20649;-63
2021/04/06 07:31:16;;;;;;;;;;;;;;;3.37;80.62;96612.36;1628258;85;20506;-67
2021/04/06 07:33:47;;;;;;;;;;;;;;;3.33;82.04;96604.73;1630744;84;20630;-70
2021/04/06 07:36:16;;;;;;;;;;;;;;;3.28;82.26;96607.22;1626155;84;20603;-68
2021/04/06 07:38:48;;;;;;;;;;;;;;;3.28;83.51;96609.81;1644207;84;21942;-68
2021/04/06 07:41:21;;;;;;;;;;;;;;;3.30;84.22;96618.18;1648399;84;20593;-69
2021/04/06 07:43:50;;;;;;;;;;;;;;;3.31;84.29;96614.06;1647120;84;20516;-67
2021/04/06 07:46:37;;;;;;;;;;;;;;;3.34;83.92;96619.30;1615203;84;20711;-66
2021/04/06 07:49:22;;;;;;;;;;;;;;;3.33;82.50;96625.50;1632857;84;20627;-70
2021/04/06 07:51:51;;;;;;;;;;;;;;;3.19;82.49;96621.04;1639840;84;21768;-66
2021/04/06 07:54:22;;;;;;;;;;;;;;;3.12;83.22;96622.95;1633152;85;20406;-64
2021/04/06 07:57:01;;;;;;;;;;;;;;;3.10;83.19;96632.77;1638649;84;20192;-67
2021/04/06 07:59:35;;;;;;;;;;;;;;;3.09;83.66;96636.41;1632880;84;20568;-66
2021/04/06 08:02:10;;;;;;;;;;;;;;;3.09;83.95;96628.62;1632525;84;20579;-63
2021/04/06 08:04:41;;;;;;;;;;;;;;;3.13;83.75;96634.42;1638822;84;22065;-68
2021/04/06 08:07:32;;;;;;;;;;;;;;;3.12;81.67;96639.83;1636070;83;20558;-66
2021/04/06 08:10:03;;;;;;;;;;;;;;;3.10;82.47;96624.47;1634221;84;20502;-64
2021/04/06 08:12:35;;;;;;;;;;;;;;;3.10;82.67;96624.47;1628773;83;20558;-67
2021/04/06 08:15:11;;;;;;;;;;;;;;;3.16;83.37;96618.13;1640834;84;20658;-64
2021/04/06 08:17:45;;;;;;;;;;;;;;;3.19;82.88;96622.84;1638695;84;20515;-66
2021/04/06 08:20:31;;;;;;;;;;;;;;;3.20;82.14;96623.13;1645343;84;20501;-70
2021/04/06 08:23:17;;;;;;;;;;;;;;;3.22;82.30;96626.30;1631502;84;20582;-68
2021/04/06 08:25:47;;;;;;;;;;;;;;;3.22;82.46;96632.80;1609459;84;20286;-69
2021/04/06 08:28:33;;;;;;;;;;;;;;;3.20;82.42;96631.71;1630968;84;20506;-69
2021/04/06 08:31:23;;;;;;;;;;;;;;;3.17;82.03;96619.17;1621628;84;21942;-72
2021/04/06 08:33:51;;;;;;;;;;;;;;;3.15;82.09;96619.92;1634999;84;20599;-72
2021/04/06 08:36:28;;;;;;;;;;;;;;;3.13;82.34;96623.25;1650772;84;20620;-65
2021/04/06 08:38:57;;;;;;;;;;;;;;;3.15;82.35;96623.82;1653947;84;20535;-68
2021/04/06 08:41:29;;;;;;;;;;;;;;;3.24;82.90;96621.69;1635369;84;20624;-68
2021/04/06 08:44:01;;;;;;;;;;;;;;;3.29;82.36;96626.98;1637007;84;21959;-68
2021/04/06 08:46:48;;;;;;;;;;;;;;;3.32;82.10;96633.00;1619449;85;20606;-68
2021/04/06 08:49:25;;;;;;;;;;;;;;;3.28;81.31;96626.19;1612723;86;20638;-70
2021/04/06 08:51:58;;;;;;;;;;;;;;;3.20;81.66;96627.03;1601736;86;20595;-68
2021/04/06 08:54:29;;;;;;;;;;;;;;;3.07;82.60;96631.43;1605148;87;20610;-70
2021/04/06 08:57:00;;;;;;;;;;;;;;;3.04;83.49;96624.08;1611494;86;20600;-68
2021/04/06 08:59:32;;;;;;;;;;;;;;;3.07;82.62;96639.22;1601928;87;20451;-69
2021/04/06 09:02:11;;;;;;;;;;;;;;;3.04;83.45;96616.80;1606808;86;20576;-70
2021/04/06 09:04:47;;;;;;;;;;;;;;;3.07;83.47;96615.86;1610099;86;20615;-68
2021/04/06 09:07:25;;;;;;;;;;;;;;;3.14;84.22;96617.84;1611509;85;20782;-66
2021/04/06 09:09:55;;;;;;;;;;;;;;;3.19;81.75;96604.17;1587464;86;21315;-72
2021/04/06 09:12:24;;;;;;;;;;;;;;;3.22;82.19;96605.53;1590313;87;20506;-65
2021/04/06 09:14:54;;;;;;;;;;;;;;;3.31;81.96;96602.89;1614255;85;20587;-68
2021/04/06 09:17:31;;;;;;;;;;;;;;;3.41;81.58;96600.49;1613441;85;20641;-65
2021/04/06 09:20:00;;;;;;;;;;;;;;;3.47;81.04;96596.48;1642452;84;20610;-66
2021/04/06 09:22:28;;;;;;;;;;;;;;;3.44;81.26;96593.05;1640763;84;22292;-71
2021/04/06 09:24:56;;;;;;;;;;;;;;;3.43;81.03;96597.96;1623358;84;20742;-74
2021/04/06 09:27:24;;;;;;;;;;;;;;;3.42;80.48;96596.38;1633629;84;20960;-78
2021/04/06 09:29:51;;;;;;;;;;;;;;;3.39;80.01;96594.73;1603871;86;20551;-74
2021/04/06 09:32:20;;;;;;;;;;;;;;;3.35;80.56;96594.91;1602303;87;20622;-74
2021/04/06 09:34:49;;;;;;;;;;;;;;;3.33;81.63;96595.13;1593831;87;21852;-75
2021/04/06 09:37:18;;;;;;;;;;;;;;;3.35;81.85;96602.20;1589080;87;20420;-71
2021/04/06 09:39:50;;;;;;;;;;;;;;;3.38;81.12;96600.97;1593744;86;20551;-70
2021/04/06 09:42:18;;;;;;;;;;;;;;;3.35;80.32;96602.20;1581857;87;20488;-72
2021/04/06 09:44:46;;;;;;;;;;;;;;;3.34;80.73;96616.19;1602115;86;20553;-75
2021/04/06 09:47:16;;;;;;;;;;;;;;;3.34;79.83;96607.10;1613066;85;21813;-72
2021/04/06 09:49:50;;;;;;;;;;;;;;;3.34;79.14;96607.61;1580724;87;20625;-72
2021/04/06 09:52:23;;;;;;;;;;;;;;;3.33;79.87;96617.71;1591017;85;20602;-74
2021/04/06 09:55:08;;;;;;;;;;;;;;;3.32;79.83;96612.23;1592255;87;20464;-75
2021/04/06 09:57:41;;;;;;;;;;;;;;;3.32;79.39;96603.94;1636189;84;20668;-75
2021/04/06 10:00:15;;;;;;;;;;;;;;;3.34;79.47;96605.80;1638826;84;21254;-75
2021/04/06 10:02:44;;;;;;;;;;;;;;;3.36;79.60;96597.80;1637585;84;20616;-77
2021/04/06 10:05:18;;;;;;;;;;;;;;;3.38;79.62;96604.86;1642232;84;20411;-69
2021/04/06 10:07:47;;;;;;;;;;;;;;;3.39;79.61;96604.61;1650027;84;21104;-70
2021/04/06 10:10:26;;;;;;;;;;;;;;;3.44;80.23;96603.95;1640695;83;20506;-70
2021/04/06 10:12:55;;;;;;;;;;;;;;;3.47;80.96;96599.07;1637653;84;22080;-66
2021/04/06 10:15:24;;;;;;;;;;;;;;;3.49;82.03;96589.76;1637490;84;20613;-70
2021/04/06 10:17:53;;;;;;;;;;;;;;;3.57;81.83;96583.42;1632892;84;20228;-67
2021/04/06 10:20:23;;;;;;;;;;;;;;;3.67;81.75;96578.45;1638276;84;20551;-68
2021/04/06 10:22:54;;;;;;;;;;;;;;;3.77;81.75;96572.14;1639488;84;20629;-68
2021/04/06 10:27:52;;;;;;;;;;;;;;;3.93;78.65;96583.12;1638418;84;38332;-69
2021/04/06 10:30:36;;;;;;;;;;;;;;;3.93;76.50;96574.81;1646804;84;20646;-65
2021/04/06 10:33:16;;;;;;;;;;;;;;;3.93;77.08;96561.03;1653236;83;20698;-72
2021/04/06 10:35:49;;;;;;;;;;;;;;;3.98;77.29;96553.82;1651606;84;20606;-65
2021/04/06 10:38:20;;;;;;;;;;;;;;;3.92;74.54;96544.64;1644657;84;22266;-75
2021/04/06 10:40:48;;;;;;;;;;;;;;;3.88;76.25;96541.45;1634049;84;20608;-70
2021/04/06 10:43:20;;;;;;;;;;;;;;;3.91;74.43;96534.47;1644465;84;20513;-70
2021/04/06 10:45:50;;;;;;;;;;;;;;;3.94;74.19;96531.42;1643872;84;20528;-67
2021/04/06 10:48:21;;;;;;;;;;;;;;;3.92;73.33;96539.95;1642196;84;20284;-68
2021/04/06 10:50:55;;;;;;;;;;;;;;;3.90;73.19;96532.88;1638365;83;21885;-67
2021/04/06 10:53:28;;;;;;;;;;;;;;;3.80;73.15;96534.80;1639535;84;21058;-66
2021/04/06 10:56:05;;;;;;;;;;;;;;;3.74;72.90;96546.13;1633214;84;20569;-65
2021/04/06 10:58:36;;;;;;;;;;;;;;;3.66;73.16;96536.59;1639063;84;21246;-64
2021/04/06 11:01:07;;;;;;;;;;;;;;;3.65;74.28;96547.50;1636591;84;20604;-70
2021/04/06 11:03:39;;;;;;;;;;;;;;;3.65;73.74;96546.70;1630426;85;21268;-70
2021/04/06 11:06:14;;;;;;;;;;;;;;;3.60;74.25;96547.41;1641914;84;20647;-70
2021/04/06 11:08:44;;;;;;;;;;;;;;;3.59;74.98;96547.63;1638610;84;20409;-69
2021/04/06 11:11:17;;;;;;;;;;;;;;;3.57;73.69;96545.25;1638396;84;20580;-74
2021/04/06 11:13:45;;;;;;;;;;;;;;;3.58;74.41;96550.73;1644396;84;21051;-64
2021/04/06 11:16:13;;;;;;;;;;;;;;;3.61;74.08;96556.75;1647896;84;21980;-70
2021/04/06 11:18:39;;;;;;;;;;;;;;;3.61;73.95;96554.16;1636846;83;20620;-71
2021/04/06 11:21:08;;;;;;;;;;;;;;;3.56;73.66;96551.46;1656786;83;20624;-71
2021/04/06 11:23:36;;;;;;;;;;;;;;;3.48;74.90;96553.11;1639621;83;20494;-70
2021/04/06 11:26:04;;;;;;;;;;;;;;;3.44;76.01;96550.70;1645535;84;20557;-71
2021/04/06 11:28:32;;;;;;;;;;;;;;;3.42;76.36;96546.23;1643574;84;21929;-68
2021/04/06 11:31:01;;;;;;;;;;;;;;;3.39;75.43;96549.28;1642022;84;20534;-68
2021/04/06 11:33:29;;;;;;;;;;;;;;;3.40;76.51;96543.86;1648624;84;20514;-68
2021/04/06 11:35:57;;;;;;;;;;;;;;;3.46;77.14;96537.75;1646935;84;20576;-72
2021/04/06 11:38:25;;;;;;;;;;;;;;;3.58;76.45;96539.05;1647713;84;20564;-72
2021/04/06 11:40:53;;;;;;;;;;;;;;;3.68;76.13;96531.43;1628582;84;22072;-70
2021/04/06 11:43:21;;;;;;;;;;;;;;;3.72;75.46;96526.58;1642486;83;20513;-72
2021/04/06 11:45:49;;;;;;;;;;;;;;;3.76;75.09;96528.98;1634768;85;20496;-69
2021/04/06 11:48:18;;;;;;;;;;;;;;;3.71;73.10;96525.78;1635267;84;20604;-67
2021/04/06 11:50:47;;;;;;;;;;;;;;;3.63;71.97;96520.16;1630827;84;20627;-66
2021/04/06 11:53:15;;;;;;;;;;;;;;;3.52;72.36;96523.88;1632713;84;22590;-69
2021/04/06 11:55:43;;;;;;;;;;;;;;;3.45;72.81;96519.31;1631062;84;20414;-66
2021/04/06 11:58:11;;;;;;;;;;;;;;;3.38;74.11;96515.27;1642502;85;20499;-67
2021/04/06 12:00:39;;;;;;;;;;;;;;;3.31;74.10;96517.20;1631979;83;20484;-67
2021/04/06 12:03:07;;;;;;;;;;;;;;;3.28;75.49;96517.64;1638074;84;20923;-68
2021/04/06 12:05:35;;;;;;;;;;;;;;;3.36;75.45;96514.70;1622685;85;21914;-64
2021/04/06 12:08:03;;;;;;;;;;;;;;;3.45;74.32;96515.92;1632412;84;20606;-67
2021/04/06 12:10:32;;;;;;;;;;;;;;;3.56;75.08;96511.20;1642560;84;20702;-64
2021/04/06 12:13:00;;;;;;;;;;;;;;;3.67;73.64;96500.00;1647248;84;20655;-60
2021/04/06 12:15:29;;;;;;;;;;;;;;;3.77;73.12;96500.68;1638532;84;20813;-68
2021/04/06 12:20:41;;;;;;;;;;;;;;;4.00;73.64;96497.99;1704198;81;20567;-68
2021/04/06 12:23:09;;;;;;;;;;;;;;;4.14;71.61;96492.77;1704825;80;20526;-63
2021/04/06 12:25:37;;;;;;;;;;;;;;;4.22;71.99;96483.30;1696640;81;20494;-60
2021/04/06 12:28:05;;;;;;;;;;;;;;;4.29;71.68;96487.04;1715006;80;20610;-67
2021/04/06 12:30:33;;;;;;;;;;;;;;;4.28;70.67;96483.65;1740374;80;22032;-68
2021/04/06 12:33:01;;;;;;;;;;;;;;;4.29;70.95;96477.94;1715685;81;20583;-66
2021/04/06 12:35:29;;;;;;;;;;;;;;;4.31;70.28;96478.50;1657234;84;20478;-65
2021/04/06 12:37:57;;;;;;;;;;;;;;;4.34;69.53;96480.61;1689917;81;20386;-64
2021/04/06 12:40:28;;;;;;;;;;;;;;;4.29;67.06;96470.14;1687875;81;20629;-65
2021/04/06 12:42:55;;;;;;;;;;;;;;;4.25;67.18;96472.95;1677522;82;21959;-71
2021/04/06 12:45:22;;;;;;;;;;;;;;;4.25;67.40;96467.74;1701722;80;20279;-72
2021/04/06 12:47:50;;;;;;;;;;;;;;;4.27;67.94;96462.56;1690628;81;20241;-70
2021/04/06 12:50:20;;;;;;;;;;;;;;;4.37;68.37;96469.75;1716600;80;20672;-69
2021/04/06 12:52:48;;;;;;;;;;;;;;;4.46;68.71;96463.14;1727138;80;20798;-71
2021/04/06 12:55:16;;;;;;;;;;;;;;;4.60;69.64;96461.78;1725760;80;21938;-70
2021/04/06 12:57:44;;;;;;;;;;;;;;;4.71;69.56;96451.78;1716212;81;20391;-65
2021/04/06 13:00:12;;;;;;;;;;;;;;;4.80;69.61;96453.47;1707059;80;20397;-65
2021/04/06 13:02:40;;;;;;;;;;;;;;;4.87;70.07;96448.88;1713245;80;20528;-72
2021/04/06 13:05:09;;;;;;;;;;;;;;;4.90;70.09;96450.98;1718867;80;20840;-68
2021/04/06 13:07:37;;;;;;;;;;;;;;;4.91;70.06;96448.66;1724725;80;22032;-69
2021/04/06 13:10:06;;;;;;;;;;;;;;;4.88;69.63;96449.16;1701958;80;20400;-70
2021/04/06 13:12:34;;;;;;;;;;;;;;;4.78;69.88;96449.52;1708136;82;20589;-63
2021/04/06 13:15:02;;;;;;;;;;;;;;;4.74;70.49;96447.14;1694981;81;20595;-68
2021/04/06 13:17:30;;;;;;;;;;;;;;;4.68;70.76;96439.23;1656352;84;20790;-70
2021/04/06 13:19:57;;;;;;;;;;;;;;;4.69;71.08;96443.93;1641422;84;21914;-68
2021/04/06 13:22:25;;;;;;;;;;;;;;;4.67;71.09;96444.70;1678046;82;20561;-68
2021/04/06 13:24:53;;;;;;;;;;;;;;;4.67;71.83;96435.09;1684241;83;20549;-67
2021/04/06 13:27:21;;;;;;;;;;;;;;;4.71;71.07;96437.47;1661003;82;21123;-67
2021/04/06 13:29:49;;;;;;;;;;;;;;;4.75;70.59;96434.41;1657986;83;20643;-63
2021/04/06 13:32:17;;;;;;;;;;;;;;;4.80;70.91;96428.75;1687662;82;21871;-67
2021/04/06 13:34:45;;;;;;;;;;;;;;;4.96;71.24;96425.84;1691734;82;20444;-63
2021/04/06 13:37:13;;;;;;;;;;;;;;;5.09;68.79;96424.17;1691573;82;20221;-68
2021/04/06 13:39:41;;;;;;;;;;;;;;;5.17;68.69;96426.36;1683396;82;20593;-68
2021/04/06 13:42:09;;;;;;;;;;;;;;;5.27;68.10;96430.88;1678345;82;20848;-68
2021/04/06 13:44:39;;;;;;;;;;;;;;;5.30;68.04;96427.80;1697206;83;22292;-70
2021/04/06 13:47:06;;;;;;;;;;;;;;;5.36;68.77;96419.80;1701054;81;20541;-70
2021/04/06 13:49:34;;;;;;;;;;;;;;;5.50;67.28;96418.91;1693049;82;20445;-78
2021/04/06 13:52:04;;;;;;;;;;;;;;;5.60;67.73;96416.92;1713267;80;20691;-72
2021/04/06 13:54:32;;;;;;;;;;;;;;;5.67;66.78;96421.43;1721808;80;20498;-66
2021/04/06 13:57:00;;;;;;;;;;;;;;;5.66;66.85;96419.84;1730989;80;21915;-63
2021/04/06 13:59:29;;;;;;;;;;;;;;;5.68;66.38;96417.80;1706790;80;20439;-63
